createdAt,value
2023-01-17T00:47:37.302Z,1.42
2023-01-17T00:50:27.725Z,1.38
2023-01-17T00:53:16.279Z,1.00
2023-01-17T00:56:05.282Z,1.60
2023-01-17T00:58:53.989Z,1.23
2023-01-17T01:01:43.277Z,1.50
2023-01-17T01:04:31.635Z,1.50
2023-01-17T01:07:20.566Z,1.25
2023-01-17T01:10:09.220Z,1.17
2023-01-17T01:12:57.735Z,1.10
2023-01-17T01:15:45.846Z,1.20
2023-01-17T01:18:34.901Z,1.50
2023-01-17T01:21:24.399Z,1.33
2023-01-17T01:24:13.562Z,0.85
2023-01-17T01:27:02.106Z,1.10
2023-01-17T01:29:50.964Z,1.10
2023-01-17T01:32:39.461Z,1.13
2023-01-17T01:35:10.417Z,1.10
2023-01-17T01:37:40.736Z,1.30
2023-01-17T01:40:13.831Z,1.25
2023-01-17T01:43:01.399Z,1.10
2023-01-17T01:45:33.578Z,1.20
2023-01-17T01:48:07.759Z,1.55
2023-01-17T01:50:38.830Z,1.50
2023-01-17T01:53:09.483Z,1.75
2023-01-17T01:55:42.182Z,1.30
2023-01-17T01:58:18.125Z,2.05
2023-01-17T02:00:48.969Z,1.48
2023-01-17T02:03:26.925Z,1.65
2023-01-17T02:06:02.534Z,1.42
2023-01-17T02:08:34.179Z,1.50
2023-01-17T02:11:05.503Z,1.50
2023-01-17T02:13:35.879Z,1.60
2023-01-17T02:16:21.733Z,1.73
2023-01-17T02:19:07.131Z,1.60
2023-01-17T02:21:57.924Z,1.50
2023-01-17T02:24:34.164Z,1.73
2023-01-17T02:27:10.831Z,1.55
2023-01-17T02:30:12.395Z,1.58
2023-01-17T02:33:06.758Z,1.77
2023-01-17T02:35:43.663Z,1.60
2023-01-17T02:38:22.599Z,1.77
2023-01-17T02:41:02.987Z,1.52
2023-01-17T02:43:35.499Z,1.60
2023-01-17T02:46:06.172Z,1.50
2023-01-17T02:48:39.117Z,1.70
2023-01-17T02:51:18.151Z,1.30
2023-01-17T02:54:19.624Z,1.92
2023-01-17T02:57:08.063Z,1.55
2023-01-17T03:00:15.338Z,1.95
2023-01-17T03:03:09.758Z,2.20
2023-01-17T03:05:58.914Z,2.08
2023-01-17T03:08:30.138Z,1.95
2023-01-17T03:11:01.522Z,1.92
2023-01-17T03:13:32.208Z,1.63
2023-01-17T03:16:04.829Z,1.73
2023-01-17T03:18:35.762Z,1.77
2023-01-17T03:21:06.595Z,2.10
2023-01-17T03:23:36.836Z,2.10
2023-01-17T03:26:07.906Z,1.83
2023-01-17T03:28:38.253Z,2.15
2023-01-17T03:31:09.093Z,2.15
2023-01-17T03:33:39.335Z,2.53
2023-01-17T03:36:10.332Z,2.67
2023-01-17T03:38:40.727Z,2.03
2023-01-17T03:41:11.455Z,2.20
2023-01-17T03:43:54.019Z,1.95
2023-01-17T03:46:27.397Z,2.05
2023-01-17T03:48:57.661Z,1.80
2023-01-17T03:51:29.366Z,2.58
2023-01-17T03:54:00.129Z,2.40
2023-01-17T03:56:30.996Z,2.05
2023-01-17T03:59:01.356Z,2.70
2023-01-17T04:01:32.217Z,2.38
2023-01-17T04:04:02.615Z,2.25
2023-01-17T04:06:33.316Z,2.08
2023-01-17T04:09:03.622Z,2.00
2023-01-17T04:11:34.516Z,1.80
2023-01-17T04:14:04.748Z,2.15
2023-01-17T04:16:35.499Z,2.38
2023-01-17T04:19:05.749Z,1.98
2023-01-17T04:21:36.432Z,1.40
2023-01-17T04:24:07.153Z,1.90
2023-01-17T04:26:38.174Z,1.67
2023-01-17T04:29:08.382Z,1.63
2023-01-17T04:31:39.238Z,2.13
2023-01-17T04:34:09.514Z,2.25
2023-01-17T04:36:40.316Z,1.88
2023-01-17T04:39:10.575Z,1.70
2023-01-17T04:41:41.487Z,2.05
2023-01-17T04:44:11.821Z,2.40
2023-01-17T04:46:42.793Z,2.75
2023-01-17T04:49:13.083Z,2.03
2023-01-17T04:51:44.198Z,2.47
2023-01-17T04:54:14.580Z,2.25
2023-01-17T04:56:46.102Z,2.83
2023-01-17T04:59:16.346Z,2.58
2023-01-17T05:01:49.612Z,3.00
2023-01-17T05:04:20.141Z,2.58
2023-01-17T05:06:50.872Z,2.20
2023-01-17T05:09:21.711Z,2.25
2023-01-17T05:11:52.532Z,2.20
2023-01-17T05:14:23.127Z,2.50
2023-01-17T05:16:57.645Z,2.13
2023-01-17T05:19:28.903Z,2.15
2023-01-17T05:22:05.008Z,2.22
2023-01-17T05:24:35.309Z,2.20
2023-01-17T05:27:06.017Z,2.17
2023-01-17T05:29:36.416Z,2.03
2023-01-17T05:32:07.976Z,2.75
2023-01-17T05:34:38.237Z,2.90
2023-01-17T05:37:08.946Z,2.72
2023-01-17T05:39:39.163Z,2.28
2023-01-17T05:42:10.224Z,2.67
2023-01-17T05:44:40.468Z,3.13
2023-01-17T05:47:11.775Z,3.42
2023-01-17T05:49:43.375Z,3.20
2023-01-17T05:52:15.157Z,3.33
2023-01-17T05:54:45.456Z,3.60
2023-01-17T05:57:17.108Z,2.80
2023-01-17T05:59:47.329Z,3.20
2023-01-17T06:02:18.089Z,3.00
2023-01-17T06:04:48.504Z,2.78
2023-01-17T06:07:19.295Z,4.00
2023-01-17T06:09:49.575Z,3.00
2023-01-17T06:12:22.028Z,3.50
2023-01-17T06:14:52.400Z,3.75
2023-01-17T06:17:23.116Z,4.53
2023-01-17T06:19:53.417Z,4.30
2023-01-17T06:22:24.452Z,4.15
2023-01-17T06:24:54.711Z,3.53
2023-01-17T06:27:25.718Z,3.30
2023-01-17T06:29:55.999Z,3.50
2023-01-17T06:32:26.887Z,3.35
2023-01-17T06:34:57.245Z,4.07
2023-01-17T06:37:28.013Z,3.03
2023-01-17T06:39:58.277Z,2.78
2023-01-17T06:42:29.149Z,4.35
2023-01-17T06:44:59.453Z,3.90
2023-01-17T06:47:30.504Z,3.67
2023-01-17T06:50:02.448Z,3.80
2023-01-17T06:52:34.060Z,3.90
2023-01-17T06:55:04.891Z,3.65
2023-01-17T06:57:35.845Z,4.18
2023-01-17T07:00:07.231Z,3.72
2023-01-17T07:02:38.128Z,3.70
2023-01-17T07:05:09.704Z,4.55
2023-01-17T07:07:40.337Z,5.32
2023-01-17T07:10:11.541Z,4.82
2023-01-17T07:12:42.348Z,3.30
2023-01-17T07:15:13.143Z,3.70
2023-01-17T07:17:43.894Z,3.88
2023-01-17T07:20:14.806Z,3.13
2023-01-17T07:22:48.523Z,3.50
2023-01-17T07:25:19.042Z,3.60
2023-01-17T07:27:50.214Z,3.33
2023-01-17T07:30:20.708Z,3.88
2023-01-17T07:32:55.785Z,3.58
2023-01-17T07:35:27.939Z,3.00
2023-01-17T07:37:58.658Z,4.95
2023-01-17T07:40:28.940Z,4.05
2023-01-17T07:43:15.254Z,3.33
2023-01-17T07:45:46.792Z,3.53
2023-01-17T07:48:18.145Z,4.45
2023-01-17T07:50:57.343Z,3.90
2023-01-17T07:53:29.993Z,3.90
2023-01-17T07:56:08.622Z,4.65
2023-01-17T07:58:39.571Z,4.93
2023-01-17T08:01:16.762Z,4.30
2023-01-17T08:03:47.848Z,4.55
2023-01-17T08:06:23.449Z,4.05
2023-01-17T08:09:00.147Z,3.60
2023-01-17T08:11:30.851Z,4.38
2023-01-17T08:14:01.638Z,3.83
2023-01-17T08:16:32.010Z,4.10
2023-01-17T08:19:02.848Z,4.20
2023-01-17T08:21:33.064Z,5.10
2023-01-17T08:24:03.839Z,4.10
2023-01-17T08:26:34.084Z,4.50
2023-01-17T08:29:04.992Z,3.88
2023-01-17T08:31:36.849Z,4.60
2023-01-17T08:34:07.689Z,4.05
2023-01-17T08:36:37.977Z,4.05
2023-01-17T08:39:08.730Z,3.83
2023-01-17T08:41:38.937Z,4.38
2023-01-17T08:44:09.687Z,3.70
2023-01-17T08:46:40.898Z,3.88
2023-01-17T08:49:13.536Z,3.88
2023-01-17T08:51:43.874Z,5.10
2023-01-17T08:54:16.395Z,6.90
2023-01-17T08:56:48.545Z,4.90
2023-01-17T08:59:19.516Z,7.05
2023-01-17T09:01:49.962Z,5.40
2023-01-17T09:04:21.069Z,2.95
2023-01-17T09:06:51.662Z,2.08
2023-01-17T09:09:22.436Z,2.33
2023-01-17T09:11:52.650Z,1.77
2023-01-17T09:14:23.523Z,1.70
2023-01-17T09:16:53.786Z,1.58
2023-01-17T09:19:24.667Z,1.88
2023-01-17T09:21:54.943Z,1.10
2023-01-17T09:24:25.690Z,1.20
2023-01-17T09:26:55.897Z,1.60
2023-01-17T09:29:26.765Z,1.35
2023-01-17T09:31:57.052Z,1.08
2023-01-17T09:34:28.239Z,1.25
2023-01-17T09:36:58.789Z,1.17
2023-01-17T09:39:29.575Z,1.45
2023-01-17T09:42:37.356Z,1.25
2023-01-17T09:45:17.951Z,1.60
2023-01-17T09:47:54.062Z,1.10
2023-01-17T09:50:40.173Z,1.40
2023-01-17T09:53:23.834Z,4.53
2023-01-17T09:56:25.036Z,2.53
2023-01-17T09:59:32.836Z,2.35
2023-01-17T10:02:26.467Z,2.33
2023-01-17T10:04:59.960Z,1.80
2023-01-17T10:08:07.560Z,1.92
2023-01-17T10:11:00.623Z,1.48
2023-01-17T10:13:49.693Z,2.03
2023-01-17T10:16:49.408Z,1.40
2023-01-17T10:19:41.262Z,1.80
2023-01-17T10:22:25.586Z,1.60
2023-01-17T10:24:59.234Z,2.20
2023-01-17T10:27:52.984Z,1.40
2023-01-17T10:30:31.666Z,1.60
2023-01-17T10:33:12.287Z,1.48
2023-01-17T10:35:52.604Z,1.80
2023-01-17T10:38:35.506Z,2.22
2023-01-17T10:41:38.657Z,1.85
2023-01-17T10:44:40.794Z,2.08
2023-01-17T10:47:22.797Z,1.50
2023-01-17T10:49:55.807Z,1.77
2023-01-17T10:52:31.144Z,1.80
2023-01-17T10:55:18.117Z,1.73
2023-01-17T10:57:50.544Z,1.50
2023-01-17T11:00:32.984Z,1.60
2023-01-17T11:03:04.259Z,1.75
2023-01-17T11:05:35.945Z,1.70
2023-01-17T11:08:11.902Z,1.45
2023-01-17T11:10:42.169Z,1.15
2023-01-17T11:13:32.498Z,1.30
2023-01-17T11:16:11.092Z,1.55
2023-01-17T11:18:42.078Z,1.50
2023-01-17T11:21:26.886Z,1.77
2023-01-17T11:23:59.002Z,1.40
2023-01-17T11:26:34.346Z,1.55
2023-01-17T11:29:30.794Z,1.27
2023-01-17T11:32:31.040Z,1.30
2023-01-17T11:35:17.312Z,1.00
2023-01-17T11:38:16.201Z,1.42
2023-01-17T11:40:48.694Z,1.23
2023-01-17T11:43:26.818Z,1.30
2023-01-17T11:46:19.009Z,1.10
2023-01-17T11:49:00.988Z,1.40
2023-01-17T11:51:34.612Z,1.58
2023-01-17T11:54:21.981Z,1.20
2023-01-17T11:56:59.579Z,1.17
2023-01-17T11:59:35.935Z,0.90
2023-01-17T12:02:18.631Z,0.95
2023-01-17T12:05:26.445Z,1.05
2023-01-17T12:08:31.996Z,0.90
2023-01-17T12:11:37.175Z,1.05
2023-01-17T12:14:23.180Z,1.33
2023-01-17T12:17:23.872Z,0.73
2023-01-17T12:20:07.134Z,0.90
2023-01-17T12:25:08.109Z,0.90
2023-01-17T12:28:38.943Z,1.10
2023-01-17T12:31:25.833Z,0.95
2023-01-17T12:34:03.677Z,0.70
2023-01-17T12:37:09.699Z,0.80
2023-01-17T12:39:45.436Z,0.65
2023-01-17T12:42:25.657Z,0.80
2023-01-17T12:44:55.873Z,0.80
2023-01-17T12:47:26.890Z,0.80
2023-01-17T12:49:57.549Z,1.10
2023-01-17T12:52:40.419Z,1.00
2023-01-17T12:55:21.975Z,0.82
2023-01-17T12:58:04.225Z,0.93
2023-01-17T13:00:39.896Z,0.88
2023-01-17T13:03:25.913Z,0.80
2023-01-17T13:05:59.087Z,0.80
2023-01-17T13:08:32.891Z,0.80
2023-01-17T13:11:09.119Z,1.17
2023-01-17T13:13:42.509Z,0.80
2023-01-17T13:16:47.844Z,1.10
2023-01-17T13:19:29.711Z,0.70
2023-01-17T13:22:02.406Z,1.20
2023-01-17T13:24:37.836Z,0.68
2023-01-17T13:27:18.746Z,1.05
2023-01-17T13:30:06.193Z,0.98
2023-01-17T13:32:53.632Z,0.88
2023-01-17T13:35:26.680Z,0.98
2023-01-17T13:38:15.089Z,0.85
2023-01-17T13:40:56.458Z,0.60
2023-01-17T13:43:37.641Z,1.00
2023-01-17T13:46:08.852Z,1.02
2023-01-17T13:48:41.873Z,1.02
2023-01-17T13:51:13.059Z,1.10
2023-01-17T13:53:43.025Z,1.40
2023-01-17T13:56:30.555Z,1.30
2023-01-17T13:59:03.942Z,1.13
2023-01-17T14:01:39.468Z,1.00
2023-01-17T14:04:11.404Z,1.00
2023-01-17T14:06:50.142Z,1.00
2023-01-17T14:09:30.262Z,1.10
2023-01-17T14:12:08.718Z,1.45
2023-01-17T14:14:42.727Z,1.20
2023-01-17T14:17:27.811Z,1.40
2023-01-17T14:20:20.601Z,1.40
2023-01-17T14:22:57.834Z,1.42
2023-01-17T14:25:39.635Z,1.67
2023-01-17T14:28:33.536Z,1.40
2023-01-17T14:31:11.403Z,1.90
2023-01-17T14:33:43.127Z,2.10
2023-01-17T14:36:34.507Z,1.80
2023-01-17T14:39:04.638Z,1.80
2023-01-17T14:41:35.090Z,1.48
2023-01-17T14:44:05.805Z,1.60
2023-01-17T14:46:37.183Z,1.30
2023-01-17T14:49:21.341Z,1.55
2023-01-17T14:52:07.413Z,1.85
2023-01-17T14:54:37.972Z,1.10
2023-01-17T14:57:29.790Z,1.05
2023-01-17T15:00:19.632Z,1.45
2023-01-17T15:02:51.942Z,1.30
2023-01-17T15:05:24.826Z,1.23
2023-01-17T15:07:58.126Z,1.30
2023-01-17T15:10:34.616Z,1.40
2023-01-17T15:13:11.039Z,1.33
2023-01-17T15:15:43.126Z,1.25
2023-01-17T15:18:16.668Z,1.40
2023-01-17T15:20:52.099Z,1.10
2023-01-17T15:25:55.252Z,1.33
2023-01-17T15:28:26.067Z,1.33
2023-01-17T15:31:12.109Z,1.33
2023-01-17T15:33:46.687Z,1.20
2023-01-17T15:36:28.983Z,1.05
2023-01-17T15:39:01.336Z,1.10
2023-01-17T15:41:38.392Z,1.17
2023-01-17T15:44:22.353Z,1.10
2023-01-17T15:46:52.598Z,1.17
2023-01-17T15:49:25.447Z,1.10
2023-01-17T15:52:15.753Z,1.08
2023-01-17T15:55:00.784Z,1.25
2023-01-17T15:57:36.533Z,1.27
2023-01-17T16:00:22.088Z,1.30
2023-01-17T16:02:58.227Z,1.58
2023-01-17T16:05:31.933Z,1.80
2023-01-17T16:08:05.446Z,1.90
2023-01-17T16:10:39.030Z,1.83
2023-01-17T16:13:11.279Z,1.35
2023-01-17T16:15:43.085Z,1.48
2023-01-17T16:18:26.829Z,1.58
2023-01-17T16:21:27.644Z,1.50
2023-01-17T16:23:58.604Z,1.80
2023-01-17T16:26:30.278Z,1.50
2023-01-17T16:29:00.614Z,1.60
2023-01-17T16:31:31.288Z,1.50
2023-01-17T16:34:01.382Z,1.40
2023-01-17T16:36:31.906Z,1.60
2023-01-17T16:39:01.932Z,1.65
2023-01-17T16:41:32.651Z,1.50
2023-01-17T16:44:06.542Z,1.60
2023-01-17T16:46:39.657Z,1.80
2023-01-17T16:49:09.865Z,1.50
2023-01-17T16:51:40.417Z,1.55
2023-01-17T16:54:10.522Z,1.70
2023-01-17T16:56:41.065Z,1.60
2023-01-17T16:59:11.143Z,1.35
2023-01-17T17:01:42.015Z,1.35
2023-01-17T17:04:14.286Z,1.50
2023-01-17T17:06:44.749Z,1.25
2023-01-17T17:09:14.770Z,1.48
2023-01-17T17:11:45.053Z,1.60
2023-01-17T17:14:15.988Z,1.35
2023-01-17T17:16:46.713Z,1.83
2023-01-17T17:19:17.200Z,2.03
2023-01-17T17:21:47.631Z,1.20
2023-01-17T17:24:18.939Z,1.63
2023-01-17T17:26:49.086Z,1.50
2023-01-17T17:29:19.661Z,1.45
2023-01-17T17:31:49.742Z,1.30
2023-01-17T17:34:20.375Z,1.35
2023-01-17T17:36:50.405Z,1.50
2023-01-17T17:39:21.121Z,1.60
2023-01-17T17:41:51.150Z,1.10
2023-01-17T17:44:21.633Z,1.20
2023-01-17T17:46:52.622Z,1.73
2023-01-17T17:49:23.857Z,1.30
2023-01-17T17:51:53.891Z,1.40
2023-01-17T17:54:25.789Z,1.15
2023-01-17T17:56:57.332Z,1.45
2023-01-17T17:59:27.352Z,1.00
2023-01-17T18:01:58.189Z,0.95
2023-01-17T18:04:28.677Z,0.80
2023-01-17T18:06:59.852Z,1.10
2023-01-17T18:09:30.210Z,1.05
2023-01-17T18:12:00.816Z,0.90
2023-01-17T18:14:31.324Z,0.93
2023-01-17T18:17:01.969Z,0.90
2023-01-17T18:19:38.165Z,0.90
2023-01-17T18:22:08.647Z,1.10
2023-01-17T18:24:39.059Z,1.02
2023-01-17T18:27:11.544Z,0.95
2023-01-17T18:29:41.663Z,0.90
2023-01-17T18:32:14.307Z,1.15
2023-01-17T18:34:44.520Z,1.13
2023-01-17T18:37:15.017Z,1.00
2023-01-17T18:39:45.202Z,1.00
2023-01-17T18:42:15.784Z,1.05
2023-01-17T18:44:45.969Z,1.52
2023-01-17T18:47:16.572Z,0.93
2023-01-17T18:49:46.680Z,1.15
2023-01-17T18:52:18.740Z,0.90
2023-01-17T18:54:49.026Z,0.75
2023-01-17T18:57:19.574Z,0.90
2023-01-17T18:59:49.654Z,0.90
2023-01-17T19:02:21.079Z,0.90
2023-01-17T19:04:52.163Z,0.77
2023-01-17T19:07:23.095Z,0.85
2023-01-17T19:09:53.115Z,1.02
2023-01-17T19:12:23.855Z,1.23
2023-01-17T19:14:53.945Z,1.13
2023-01-17T19:17:24.402Z,1.27
2023-01-17T19:19:56.977Z,1.00
2023-01-17T19:22:27.644Z,0.90
2023-01-17T19:24:57.715Z,1.10
2023-01-17T19:27:28.328Z,1.35
2023-01-17T19:29:58.367Z,1.10
2023-01-17T19:32:28.826Z,1.50
2023-01-17T19:34:58.770Z,1.00
2023-01-17T19:37:29.732Z,1.27
2023-01-17T19:40:00.101Z,1.10
2023-01-17T19:42:30.902Z,1.00
2023-01-17T19:45:01.228Z,1.13
2023-01-17T19:47:32.436Z,1.10
2023-01-17T19:50:02.743Z,1.13
2023-01-17T19:52:33.209Z,1.00
2023-01-17T19:55:03.959Z,1.60
2023-01-17T19:57:38.028Z,1.65
2023-01-17T20:00:11.188Z,1.33
2023-01-17T20:02:42.361Z,1.27
2023-01-17T20:05:12.487Z,1.20
2023-01-17T20:07:42.961Z,1.02
2023-01-17T20:10:13.448Z,1.08
2023-01-17T20:12:46.468Z,1.45
2023-01-17T20:15:17.037Z,1.10
2023-01-17T20:17:47.710Z,1.20
2023-01-17T20:20:18.968Z,1.08
2023-01-17T20:22:49.738Z,1.10
2023-01-17T20:25:19.867Z,1.13
2023-01-17T20:27:50.017Z,1.17
2023-01-17T20:30:20.923Z,1.23
2023-01-17T20:32:51.784Z,1.00
2023-01-17T20:35:22.369Z,1.20
2023-01-17T20:37:56.033Z,0.88
2023-01-17T20:40:26.755Z,1.00
2023-01-17T20:42:56.838Z,0.82
2023-01-17T20:45:26.831Z,1.10
2023-01-17T20:47:57.682Z,0.95
2023-01-17T20:50:28.550Z,1.30
2023-01-17T20:52:59.017Z,0.80
2023-01-17T20:55:29.067Z,1.10
2023-01-17T20:58:00.661Z,1.00
2023-01-17T21:00:30.708Z,1.30
2023-01-17T21:03:01.196Z,0.90
2023-01-17T21:05:31.304Z,1.00
2023-01-17T21:08:05.469Z,0.90
2023-01-17T21:10:37.494Z,1.00
2023-01-17T21:13:09.309Z,1.08
2023-01-17T21:15:45.611Z,1.05
2023-01-17T21:18:18.638Z,0.98
2023-01-17T21:20:50.447Z,1.30
2023-01-17T21:23:21.310Z,1.15
2023-01-17T21:25:55.813Z,1.35
2023-01-17T21:28:30.472Z,1.08
2023-01-17T21:31:27.381Z,0.98
2023-01-17T21:33:59.224Z,1.00
2023-01-17T21:36:33.664Z,1.25
2023-01-17T21:39:07.267Z,1.13
2023-01-17T21:41:40.659Z,1.25
2023-01-17T21:44:17.084Z,1.00
2023-01-17T21:46:48.070Z,0.80
2023-01-17T21:49:18.676Z,1.30
2023-01-17T21:51:54.776Z,0.95
2023-01-17T21:57:36.112Z,0.80
2023-01-17T22:00:09.301Z,1.33
2023-01-17T22:02:42.457Z,1.15
2023-01-17T22:05:13.081Z,1.20
2023-01-17T22:08:13.233Z,1.35
2023-01-17T22:10:48.102Z,1.00
2023-01-17T22:13:19.839Z,1.10
2023-01-17T22:16:00.038Z,1.35
2023-01-17T22:18:31.000Z,1.05
2023-01-17T22:21:07.317Z,1.10
2023-01-17T22:23:41.980Z,1.52
2023-01-17T22:26:13.153Z,0.90
2023-01-17T22:28:43.752Z,1.20
2023-01-17T22:31:15.767Z,0.95
2023-01-17T22:33:48.655Z,1.00
2023-01-17T22:36:28.279Z,1.30
2023-01-17T22:39:01.993Z,1.35
2023-01-17T22:41:35.094Z,1.27
2023-01-17T22:44:09.120Z,1.10
2023-01-17T22:46:40.423Z,1.05
2023-01-17T22:49:14.471Z,1.05
2023-01-17T22:51:48.807Z,1.10
2023-01-17T22:54:20.760Z,1.48
2023-01-17T22:56:53.513Z,1.15
2023-01-17T22:59:23.831Z,0.93
2023-01-17T23:01:55.544Z,1.23
2023-01-17T23:04:25.681Z,1.10
2023-01-17T23:06:56.443Z,0.90
2023-01-17T23:09:26.868Z,1.10
2023-01-17T23:11:57.514Z,1.10
2023-01-17T23:14:56.396Z,1.02
2023-01-17T23:17:46.532Z,1.25
2023-01-17T23:22:47.531Z,1.02
2023-01-17T23:25:18.793Z,0.93
2023-01-17T23:28:07.390Z,0.88
2023-01-17T23:30:38.458Z,1.08
2023-01-17T23:33:11.781Z,1.00
2023-01-17T23:35:44.218Z,1.17
2023-01-17T23:38:34.836Z,0.88
2023-01-17T23:41:26.475Z,0.85
2023-01-17T23:44:00.396Z,0.93
2023-01-17T23:46:38.246Z,1.13
2023-01-17T23:49:09.834Z,1.02
2023-01-17T23:51:41.408Z,0.90
2023-01-17T23:54:12.874Z,1.00
2023-01-17T23:56:43.708Z,0.73
2023-01-17T23:59:13.976Z,1.20
